createdAt,value
2018-08-04T00:00:23.397Z,3.70
2018-08-04T00:02:52.689Z,3.43
2018-08-04T00:05:21.855Z,3.70
2018-08-04T00:07:51.157Z,3.97
2018-08-04T00:10:21.560Z,4.23
2018-08-04T00:12:51.859Z,4.50
2018-08-04T00:15:21.520Z,4.60
2018-08-04T00:17:50.936Z,4.43
2018-08-04T00:20:20.152Z,4.37
2018-08-04T00:22:49.338Z,4.23
2018-08-04T00:25:18.649Z,4.27
2018-08-04T00:27:47.832Z,4.27
2018-08-04T00:30:17.335Z,4.37
2018-08-04T00:32:46.494Z,5.13
2018-08-04T00:35:16.477Z,5.47
2018-08-04T00:37:45.648Z,5.13
2018-08-04T00:40:14.945Z,5.40
2018-08-04T00:42:44.160Z,5.87
2018-08-04T00:45:13.057Z,5.57
2018-08-04T00:47:42.314Z,6.93
2018-08-04T00:50:11.512Z,6.30
2018-08-04T00:52:40.957Z,7.57
2018-08-04T00:55:10.282Z,7.87
2018-08-04T00:57:39.415Z,7.30
2018-08-04T01:00:08.711Z,7.50
2018-08-04T01:02:37.812Z,7.50
2018-08-04T01:05:07.310Z,7.27
2018-08-04T01:07:36.627Z,6.83
2018-08-04T01:10:05.863Z,6.40
2018-08-04T01:12:34.920Z,5.70
2018-08-04T01:15:04.719Z,6.50
2018-08-04T01:17:33.835Z,6.83
2018-08-04T01:20:04.284Z,7.37
2018-08-04T01:22:34.935Z,7.70
2018-08-04T01:25:05.108Z,9.60
2018-08-04T01:27:34.591Z,9.03
2018-08-04T01:30:04.796Z,9.63
2018-08-04T01:32:34.175Z,8.10
2018-08-04T01:35:03.096Z,9.00
2018-08-04T01:37:32.193Z,8.73
2018-08-04T01:40:01.309Z,7.40
2018-08-04T01:42:30.609Z,7.33
2018-08-04T01:44:59.799Z,8.10
2018-08-04T01:47:29.024Z,8.67
2018-08-04T01:49:58.868Z,8.97
2018-08-04T01:52:28.045Z,8.03
2018-08-04T01:54:57.151Z,8.97
2018-08-04T01:57:26.453Z,9.57
2018-08-04T01:59:55.612Z,9.53
2018-08-04T02:02:24.927Z,9.80
2018-08-04T02:04:54.361Z,9.63
2018-08-04T02:07:23.643Z,9.83
2018-08-04T02:09:53.135Z,9.90
2018-08-04T02:12:22.328Z,11.37
2018-08-04T02:14:51.565Z,12.53
2018-08-04T02:17:20.732Z,12.30
2018-08-04T02:19:50.053Z,12.13
2018-08-04T02:22:18.992Z,12.07
2018-08-04T02:24:48.140Z,12.93
2018-08-04T02:27:17.477Z,13.80
2018-08-04T02:29:46.754Z,13.77
2018-08-04T02:32:15.928Z,12.97
2018-08-04T02:34:45.136Z,13.73
2018-08-04T02:37:14.364Z,14.07
2018-08-04T02:39:50.113Z,13.90
2018-08-04T02:42:19.525Z,13.43
2018-08-04T02:44:49.030Z,13.50
2018-08-04T02:47:18.644Z,14.40
2018-08-04T02:49:47.747Z,15.20
2018-08-04T02:52:17.015Z,14.93
2018-08-04T02:54:46.313Z,14.93
2018-08-04T02:57:15.492Z,14.80
2018-08-04T02:59:44.685Z,15.23
2018-08-04T03:02:13.918Z,15.97
2018-08-04T03:04:43.127Z,13.83
2018-08-04T03:07:12.396Z,14.80
2018-08-04T03:09:41.601Z,13.63
2018-08-04T03:12:10.914Z,13.57
2018-08-04T03:14:40.295Z,13.63
2018-08-04T03:17:09.626Z,12.90
2018-08-04T03:19:38.827Z,12.30
2018-08-04T03:22:08.034Z,12.03
2018-08-04T03:24:37.236Z,11.73
2018-08-04T03:27:06.673Z,12.07
2018-08-04T03:29:36.023Z,11.33
2018-08-04T03:32:04.912Z,11.93
2018-08-04T03:34:34.023Z,11.10
2018-08-04T03:37:04.032Z,11.30
2018-08-04T03:39:33.196Z,11.90
2018-08-04T03:42:02.512Z,11.53
2018-08-04T03:44:31.845Z,11.53
2018-08-04T03:47:01.015Z,10.90
2018-08-04T03:49:30.249Z,11.37
2018-08-04T03:51:59.394Z,12.03
2018-08-04T03:54:28.617Z,10.60
2018-08-04T03:56:57.821Z,11.37
2018-08-04T03:59:26.997Z,12.20
2018-08-04T04:01:56.285Z,12.33
2018-08-04T04:04:25.579Z,12.43
2018-08-04T04:06:54.821Z,12.50
2018-08-04T04:09:23.999Z,12.23
2018-08-04T04:11:53.408Z,12.07
2018-08-04T04:14:22.525Z,12.30
2018-08-04T04:16:51.936Z,12.37
2018-08-04T04:19:21.119Z,10.93
2018-08-04T04:21:50.522Z,12.57
2018-08-04T04:24:19.922Z,12.10
2018-08-04T04:26:49.125Z,12.17
2018-08-04T04:29:18.359Z,12.00
2018-08-04T04:31:47.513Z,12.50
2018-08-04T04:34:17.080Z,13.07
2018-08-04T04:36:46.374Z,12.70
2018-08-04T04:39:15.552Z,13.33
2018-08-04T04:41:44.945Z,12.73
2018-08-04T04:44:14.124Z,12.63
2018-08-04T04:46:43.336Z,11.20
2018-08-04T04:49:13.299Z,11.77
2018-08-04T04:51:43.528Z,11.47
2018-08-04T04:54:12.904Z,11.13
2018-08-04T04:56:42.192Z,10.60
2018-08-04T04:59:11.377Z,9.93
2018-08-04T05:01:40.580Z,9.77
2018-08-04T05:04:09.826Z,9.03
2018-08-04T05:06:38.998Z,8.87
2018-08-04T05:09:09.204Z,8.80
2018-08-04T05:11:38.444Z,8.40
2018-08-04T05:14:09.448Z,7.73
2018-08-04T05:16:39.144Z,8.50
2018-08-04T05:19:08.421Z,8.90
2018-08-04T05:21:37.587Z,8.07
2018-08-04T05:24:06.770Z,8.50
2018-08-04T05:26:35.902Z,8.20
2018-08-04T05:29:05.124Z,8.33
2018-08-04T05:31:34.402Z,7.90
2018-08-04T05:34:03.578Z,8.10
2018-08-04T05:36:32.793Z,8.43
2018-08-04T05:39:02.149Z,8.83
2018-08-04T05:41:31.374Z,12.70
2018-08-04T05:44:00.452Z,9.47
2018-08-04T05:46:29.770Z,9.03
2018-08-04T05:48:59.013Z,8.50
2018-08-04T05:51:28.560Z,8.40
2018-08-04T05:53:57.738Z,7.87
2018-08-04T05:56:26.884Z,8.45
2018-08-04T05:58:56.128Z,7.95
2018-08-04T06:01:25.700Z,7.67
2018-08-04T06:03:55.050Z,7.20
2018-08-04T06:06:24.362Z,7.95
2018-08-04T06:08:53.556Z,7.60
2018-08-04T06:11:22.732Z,8.00
2018-08-04T06:13:52.247Z,7.45
2018-08-04T06:16:21.424Z,5.58
2018-08-04T06:18:51.072Z,4.85
2018-08-04T06:21:20.231Z,4.53
2018-08-04T06:23:49.555Z,5.45
2018-08-04T06:26:18.892Z,5.47
2018-08-04T06:28:48.052Z,4.55
2018-08-04T06:31:17.591Z,3.90
2018-08-04T06:33:46.779Z,3.33
2018-08-04T06:36:15.953Z,3.67
2018-08-04T06:38:45.161Z,3.02
2018-08-04T06:41:14.299Z,3.58
2018-08-04T06:43:43.597Z,3.95
2018-08-04T06:46:12.860Z,4.37
2018-08-04T06:48:42.056Z,4.55
2018-08-04T06:51:11.276Z,4.28
2018-08-04T06:53:40.555Z,3.60
2018-08-04T06:56:09.781Z,4.22
2018-08-04T06:58:38.937Z,4.47
2018-08-04T07:01:08.140Z,4.72
2018-08-04T07:03:37.320Z,5.05
2018-08-04T07:06:06.650Z,4.70
2018-08-04T07:08:36.042Z,5.90
2018-08-04T07:11:05.476Z,5.90
2018-08-04T07:13:34.885Z,6.47
2018-08-04T07:16:04.466Z,6.90
2018-08-04T07:18:33.578Z,6.05
2018-08-04T07:21:02.997Z,5.92
2018-08-04T07:23:32.298Z,5.20
2018-08-04T07:26:01.635Z,6.80
2018-08-04T07:28:30.869Z,5.47
2018-08-04T07:31:00.090Z,4.50
2018-08-04T07:33:29.245Z,5.62
2018-08-04T07:35:58.602Z,5.45
2018-08-04T07:38:27.753Z,4.95
2018-08-04T07:40:56.994Z,5.35
2018-08-04T07:43:26.265Z,4.92
2018-08-04T07:45:55.088Z,5.37
2018-08-04T07:48:24.231Z,4.65
2018-08-04T07:50:53.495Z,5.47
2018-08-04T07:53:22.835Z,5.97
2018-08-04T07:55:52.040Z,4.95
2018-08-04T07:58:21.344Z,6.15
2018-08-04T08:00:50.532Z,5.62
2018-08-04T08:03:19.887Z,4.95
2018-08-04T08:05:49.151Z,5.28
2018-08-04T08:08:18.425Z,5.80
2018-08-04T08:10:47.638Z,5.03
2018-08-04T08:13:16.894Z,4.00
2018-08-04T08:15:46.075Z,3.92
2018-08-04T08:18:15.294Z,4.80
2018-08-04T08:20:44.759Z,4.55
2018-08-04T08:23:14.171Z,4.22
2018-08-04T08:25:53.327Z,4.83
2018-08-04T08:28:22.577Z,4.87
2018-08-04T08:30:51.813Z,5.10
2018-08-04T08:33:21.107Z,4.80
2018-08-04T08:35:50.327Z,4.75
2018-08-04T08:38:19.680Z,3.70
2018-08-04T08:40:49.102Z,5.03
2018-08-04T08:43:18.758Z,4.47
2018-08-04T08:45:48.047Z,4.10
2018-08-04T08:48:17.509Z,5.67
2018-08-04T08:50:46.690Z,5.20
2018-08-04T08:53:16.047Z,5.37
2018-08-04T08:55:45.138Z,5.58
2018-08-04T08:58:14.255Z,5.60
2018-08-04T09:00:43.495Z,5.33
2018-08-04T09:03:12.907Z,4.10
2018-08-04T09:05:42.257Z,4.30
2018-08-04T09:08:12.469Z,3.92
2018-08-04T09:10:41.809Z,4.00
2018-08-04T09:13:11.245Z,4.85
2018-08-04T09:15:40.467Z,4.60
2018-08-04T09:18:09.627Z,4.25
2018-08-04T09:20:38.799Z,4.33
2018-08-04T09:23:08.050Z,3.92
2018-08-04T09:25:37.248Z,4.72
2018-08-04T09:28:06.592Z,5.75
2018-08-04T09:30:35.856Z,4.95
2018-08-04T09:33:05.376Z,3.95
2018-08-04T09:35:34.504Z,4.47
2018-08-04T09:38:03.746Z,4.17
2018-08-04T09:40:33.071Z,3.77
2018-08-04T09:43:02.215Z,4.17
2018-08-04T09:45:31.448Z,4.22
2018-08-04T09:48:00.564Z,3.50
2018-08-04T09:50:29.923Z,3.90
2018-08-04T09:52:59.170Z,3.70
2018-08-04T09:55:28.455Z,3.90
2018-08-04T09:57:57.854Z,5.08
2018-08-04T10:00:32.488Z,3.70
2018-08-04T10:03:01.874Z,4.12
2018-08-04T10:05:31.058Z,4.97
2018-08-04T10:08:00.233Z,4.15
2018-08-04T10:10:29.549Z,4.55
2018-08-04T10:12:58.889Z,3.60
2018-08-04T10:15:28.171Z,4.05
2018-08-04T10:17:57.498Z,4.67
2018-08-04T10:20:27.683Z,4.70
2018-08-04T10:22:56.876Z,5.53
2018-08-04T10:25:26.030Z,5.17
2018-08-04T10:27:55.347Z,5.95
2018-08-04T10:30:24.466Z,5.30
2018-08-04T10:32:54.014Z,5.37
2018-08-04T10:35:23.931Z,4.83
2018-08-04T10:37:53.171Z,5.78
2018-08-04T10:40:22.424Z,6.03
2018-08-04T10:42:52.352Z,5.50
2018-08-04T10:45:21.512Z,5.35
2018-08-04T10:47:50.719Z,4.60
2018-08-04T10:50:20.130Z,5.47
2018-08-04T10:52:49.354Z,4.25
2018-08-04T10:55:18.545Z,3.20
2018-08-04T10:57:47.757Z,3.70
2018-08-04T11:00:17.116Z,4.15
2018-08-04T11:02:47.192Z,3.87
2018-08-04T11:05:16.463Z,4.10
2018-08-04T11:07:45.862Z,4.03
2018-08-04T11:10:15.112Z,3.50
2018-08-04T11:12:44.455Z,3.37
2018-08-04T11:15:14.189Z,3.12
2018-08-04T11:17:43.400Z,2.90
2018-08-04T11:20:12.706Z,3.95
2018-08-04T11:22:42.003Z,2.92
2018-08-04T11:25:11.260Z,3.45
2018-08-04T11:27:40.467Z,3.17
2018-08-04T11:30:10.072Z,3.50
2018-08-04T11:32:39.317Z,4.03
2018-08-04T11:35:08.507Z,3.02
2018-08-04T11:37:37.779Z,3.83
2018-08-04T11:40:08.565Z,3.37
2018-08-04T11:42:38.727Z,3.17
2018-08-04T11:45:08.033Z,3.20
2018-08-04T11:47:37.180Z,3.08
2018-08-04T11:50:06.418Z,3.17
2018-08-04T11:52:35.722Z,3.50
2018-08-04T11:55:04.980Z,3.80
2018-08-04T11:57:34.344Z,3.75
2018-08-04T12:00:04.674Z,3.30
2018-08-04T12:02:33.968Z,3.90
2018-08-04T12:05:03.220Z,3.55
2018-08-04T12:07:32.600Z,3.47
2018-08-04T12:10:02.106Z,2.77
2018-08-04T12:12:31.335Z,2.95
2018-08-04T12:15:00.684Z,2.87
2018-08-04T12:17:30.036Z,2.90
2018-08-04T12:19:59.879Z,2.67
2018-08-04T12:22:29.096Z,2.60
2018-08-04T12:24:58.206Z,2.75
2018-08-04T12:27:28.348Z,2.40
2018-08-04T12:29:57.665Z,2.70
2018-08-04T12:32:27.065Z,2.75
2018-08-04T12:34:56.416Z,2.58
2018-08-04T12:37:25.795Z,2.90
2018-08-04T12:39:54.868Z,3.08
2018-08-04T12:42:24.180Z,3.27
2018-08-04T12:44:53.368Z,3.52
2018-08-04T12:47:22.833Z,3.45
2018-08-04T12:49:51.992Z,3.58
2018-08-04T12:52:21.676Z,3.12
2018-08-04T12:54:50.944Z,2.25
2018-08-04T12:57:20.235Z,2.40
2018-08-04T12:59:49.368Z,1.98
2018-08-04T13:02:18.760Z,2.27
2018-08-04T13:04:47.939Z,2.12
2018-08-04T13:07:17.458Z,1.90
2018-08-04T13:09:46.616Z,1.92
2018-08-04T13:12:15.752Z,2.27
2018-08-04T13:14:45.181Z,2.25
2018-08-04T13:17:14.324Z,1.77
2018-08-04T13:19:43.605Z,1.80
2018-08-04T13:22:12.387Z,1.70
2018-08-04T13:24:41.426Z,1.87
2018-08-04T13:27:10.717Z,3.30
2018-08-04T13:29:39.919Z,1.80
2018-08-04T13:32:09.257Z,2.10
2018-08-04T13:34:38.393Z,2.92
2018-08-04T13:37:07.990Z,2.92
2018-08-04T13:39:37.208Z,1.70
2018-08-04T13:42:06.607Z,1.45
2018-08-04T13:44:35.782Z,2.20
2018-08-04T13:47:05.497Z,2.20
2018-08-04T13:49:34.850Z,1.60
2018-08-04T13:52:04.007Z,1.42
2018-08-04T13:54:33.314Z,1.82
2018-08-04T13:57:02.524Z,1.42
2018-08-04T13:59:31.623Z,1.32
2018-08-04T14:02:00.774Z,1.35
2018-08-04T14:04:30.029Z,1.90
2018-08-04T14:06:59.245Z,1.97
2018-08-04T14:09:28.417Z,2.03
2018-08-04T14:11:57.219Z,2.22
2018-08-04T14:14:26.400Z,2.00
2018-08-04T14:16:55.314Z,1.50
2018-08-04T14:19:24.425Z,1.65
2018-08-04T14:21:53.837Z,1.52
2018-08-04T14:24:22.974Z,1.50
2018-08-04T14:26:52.289Z,1.50
2018-08-04T14:29:22.123Z,1.47
2018-08-04T14:31:51.387Z,1.60
2018-08-04T14:34:20.647Z,1.25
2018-08-04T14:36:49.791Z,1.35
2018-08-04T14:39:18.817Z,1.82
2018-08-04T14:41:47.976Z,1.45
2018-08-04T14:44:18.181Z,1.40
2018-08-04T14:46:47.403Z,1.50
2018-08-04T14:49:16.615Z,1.40
2018-08-04T14:51:45.826Z,1.20
2018-08-04T14:54:15.247Z,1.20
2018-08-04T14:56:44.613Z,8.38
2018-08-04T14:59:13.931Z,2.00
2018-08-04T15:01:43.066Z,1.20
2018-08-04T15:04:12.545Z,1.20
2018-08-04T15:06:41.704Z,1.13
2018-08-04T15:09:12.301Z,1.50
2018-08-04T15:11:41.579Z,1.70
2018-08-04T15:14:11.284Z,1.60
2018-08-04T15:16:40.379Z,1.70
2018-08-04T15:19:09.584Z,1.67
2018-08-04T15:21:38.848Z,2.40
2018-08-04T15:24:08.055Z,1.83
2018-08-04T15:26:37.199Z,2.87
2018-08-04T15:29:06.331Z,2.50
2018-08-04T15:31:35.507Z,2.00
2018-08-04T15:34:04.732Z,1.70
2018-08-04T15:36:33.844Z,2.10
2018-08-04T15:39:03.122Z,1.40
2018-08-04T15:41:34.918Z,1.70
2018-08-04T15:44:04.048Z,1.57
2018-08-04T15:46:34.018Z,1.57
2018-08-04T15:49:03.191Z,1.50
2018-08-04T15:51:32.359Z,1.50
2018-08-04T15:54:01.595Z,1.53
2018-08-04T15:56:30.784Z,1.70
2018-08-04T15:58:59.952Z,1.70
2018-08-04T16:01:29.281Z,4.60
2018-08-04T16:03:58.459Z,5.90
2018-08-04T16:06:27.570Z,1.80
2018-08-04T16:08:57.415Z,1.60
2018-08-04T16:11:26.756Z,1.63
2018-08-04T16:13:55.911Z,1.70
2018-08-04T16:16:25.025Z,1.53
2018-08-04T16:18:54.173Z,1.60
2018-08-04T16:21:23.300Z,1.37
2018-08-04T16:23:52.448Z,1.60
2018-08-04T16:26:21.605Z,1.50
2018-08-04T16:28:50.985Z,1.30
2018-08-04T16:31:20.286Z,1.57
2018-08-04T16:33:50.160Z,1.43
2018-08-04T16:36:19.445Z,1.50
2018-08-04T16:38:48.700Z,1.63
2018-08-04T16:41:18.049Z,1.60
2018-08-04T16:43:47.162Z,1.70
2018-08-04T16:46:16.287Z,1.60
2018-08-04T16:48:45.456Z,1.77
2018-08-04T16:51:14.662Z,1.60
2018-08-04T16:53:43.766Z,1.40
2018-08-04T16:56:12.984Z,1.60
2018-08-04T16:58:42.127Z,1.57
2018-08-04T17:01:11.379Z,2.03
2018-08-04T17:03:40.545Z,1.80
2018-08-04T17:06:10.628Z,1.60
2018-08-04T17:08:39.727Z,1.57
2018-08-04T17:11:08.917Z,1.70
2018-08-04T17:13:38.077Z,1.60
2018-08-04T17:16:07.294Z,1.40
2018-08-04T17:18:36.678Z,1.53
2018-08-04T17:21:05.996Z,1.90
2018-08-04T17:23:35.142Z,2.00
2018-08-04T17:26:04.568Z,1.67
2018-08-04T17:28:33.724Z,1.83
2018-08-04T17:31:03.305Z,2.27
2018-08-04T17:33:32.537Z,2.50
2018-08-04T17:36:01.805Z,1.80
2018-08-04T17:38:30.941Z,2.53
2018-08-04T17:41:07.464Z,2.40
2018-08-04T17:43:36.620Z,2.17
2018-08-04T17:46:05.829Z,2.27
2018-08-04T17:48:35.009Z,1.90
2018-08-04T17:51:04.260Z,1.73
2018-08-04T17:53:33.458Z,1.90
2018-08-04T17:56:02.696Z,1.60
2018-08-04T17:58:31.883Z,1.90
2018-08-04T18:01:01.085Z,2.00
2018-08-04T18:03:30.305Z,2.90
2018-08-04T18:05:59.497Z,2.77
2018-08-04T18:08:28.724Z,2.70
2018-08-04T18:10:57.959Z,2.83
2018-08-04T18:13:27.189Z,3.23
2018-08-04T18:15:57.323Z,3.17
2018-08-04T18:18:26.414Z,3.03
2018-08-04T18:20:55.521Z,2.20
2018-08-04T18:23:24.647Z,2.20
2018-08-04T18:25:53.766Z,1.83
2018-08-04T18:28:22.903Z,2.10
2018-08-04T18:30:52.166Z,2.40
2018-08-04T18:33:21.321Z,2.00
2018-08-04T18:35:50.574Z,1.70
2018-08-04T18:38:20.074Z,1.70
2018-08-04T18:40:49.293Z,1.70
2018-08-04T18:43:18.623Z,2.27
2018-08-04T18:45:47.813Z,4.20
2018-08-04T18:48:17.009Z,1.40
2018-08-04T18:50:46.293Z,1.60
2018-08-04T18:53:15.521Z,1.60
2018-08-04T18:55:44.710Z,1.30
2018-08-04T18:58:13.812Z,1.40
2018-08-04T19:00:43.012Z,1.50
2018-08-04T19:03:12.940Z,1.57
2018-08-04T19:05:42.928Z,1.30
2018-08-04T19:08:12.230Z,1.40
2018-08-04T19:10:41.364Z,1.67
2018-08-04T19:13:10.521Z,1.40
2018-08-04T19:15:39.712Z,1.63
2018-08-04T19:18:08.906Z,1.80
2018-08-04T19:20:38.178Z,2.30
2018-08-04T19:23:07.409Z,4.77
2018-08-04T19:25:36.656Z,55.67
2018-08-04T19:28:05.937Z,2.13
2018-08-04T19:30:35.228Z,2.70
2018-08-04T19:33:04.350Z,1.80
2018-08-04T19:35:33.567Z,1.93
2018-08-04T19:38:02.813Z,1.83
2018-08-04T19:40:31.718Z,2.03
2018-08-04T19:43:00.815Z,1.60
2018-08-04T19:45:31.081Z,1.47
2018-08-04T19:48:00.374Z,2.20
2018-08-04T19:50:29.622Z,4.10
2018-08-04T19:52:58.873Z,2.30
2018-08-04T19:55:28.099Z,3.87
2018-08-04T19:57:57.283Z,2.30
2018-08-04T20:00:26.427Z,2.60
2018-08-04T20:02:55.663Z,3.50
2018-08-04T20:05:24.916Z,5.90
2018-08-04T20:07:54.075Z,9.43
2018-08-04T20:10:23.308Z,11.80
2018-08-04T20:12:52.628Z,18.47
2018-08-04T20:15:21.521Z,7.87
2018-08-04T20:17:50.905Z,8.90
2018-08-04T20:20:20.362Z,34.93
2018-08-04T20:22:49.631Z,14.17
2018-08-04T20:25:19.340Z,14.60
2018-08-04T20:27:48.474Z,13.00
2018-08-04T20:30:17.781Z,11.27
2018-08-04T20:32:47.035Z,10.80
2018-08-04T20:35:16.607Z,5.80
2018-08-04T20:37:45.858Z,7.63
2018-08-04T20:40:15.026Z,6.33
2018-08-04T20:42:44.227Z,10.33
2018-08-04T20:45:13.551Z,7.10
2018-08-04T20:47:43.900Z,7.80
2018-08-04T20:50:13.424Z,7.87
2018-08-04T20:52:42.568Z,8.90
2018-08-04T20:55:11.870Z,8.63
2018-08-04T20:57:41.245Z,8.47
2018-08-04T21:00:10.805Z,10.33
2018-08-04T21:02:39.896Z,7.57
2018-08-04T21:05:09.095Z,6.80
2018-08-04T21:07:38.333Z,7.47
2018-08-04T21:10:07.577Z,6.50
2018-08-04T21:12:36.794Z,6.17
2018-08-04T21:15:06.141Z,5.97
2018-08-04T21:17:35.423Z,4.90
2018-08-04T21:20:04.976Z,4.97
2018-08-04T21:22:34.407Z,6.73
2018-08-04T21:25:03.635Z,5.60
2018-08-04T21:27:32.951Z,5.43
2018-08-04T21:30:02.081Z,4.40
2018-08-04T21:32:31.491Z,4.00
2018-08-04T21:35:01.346Z,3.90
2018-08-04T21:37:30.534Z,4.23
2018-08-04T21:39:59.659Z,6.67
2018-08-04T21:42:28.559Z,4.10
2018-08-04T21:44:57.657Z,3.73
2018-08-04T21:47:27.109Z,3.13
2018-08-04T21:49:56.237Z,2.73
2018-08-04T21:52:25.616Z,3.40
2018-08-04T21:54:55.758Z,2.60
2018-08-04T21:57:25.072Z,3.27
2018-08-04T21:59:54.404Z,3.87
2018-08-04T22:02:23.604Z,2.27
2018-08-04T22:04:53.490Z,2.60
2018-08-04T22:07:44.233Z,2.37
2018-08-04T22:10:14.978Z,2.20
2018-08-04T22:12:45.696Z,2.20
2018-08-04T22:15:15.741Z,2.40
2018-08-04T22:17:44.987Z,2.00
2018-08-04T22:20:15.155Z,2.60
2018-08-04T22:22:44.444Z,2.10
2018-08-04T22:25:15.071Z,2.47
2018-08-04T22:27:44.652Z,2.60
2018-08-04T22:30:15.007Z,2.43
2018-08-04T22:32:45.235Z,2.40
2018-08-04T22:35:14.527Z,2.33
2018-08-04T22:37:44.495Z,2.00
2018-08-04T22:40:14.993Z,2.50
2018-08-04T22:42:44.486Z,2.40
2018-08-04T22:46:15.714Z,2.40
2018-08-04T22:48:46.260Z,2.33
2018-08-04T22:51:23.311Z,2.07
2018-08-04T22:53:52.532Z,1.90
2018-08-04T22:56:21.566Z,2.13
2018-08-04T22:58:50.809Z,2.30
2018-08-04T23:01:20.032Z,2.20
2018-08-04T23:03:49.254Z,1.63
2018-08-04T23:06:19.148Z,1.90
2018-08-04T23:08:48.487Z,1.63
2018-08-04T23:11:17.780Z,1.80
2018-08-04T23:13:47.136Z,2.17
2018-08-04T23:16:16.318Z,2.10
2018-08-04T23:18:45.542Z,2.10
2018-08-04T23:21:14.808Z,2.40
2018-08-04T23:23:44.046Z,1.87
2018-08-04T23:26:13.212Z,1.73
2018-08-04T23:28:42.374Z,1.83
2018-08-04T23:31:11.532Z,1.30
2018-08-04T23:33:40.454Z,1.80
2018-08-04T23:36:09.748Z,1.57
2018-08-04T23:38:38.928Z,1.50
2018-08-04T23:41:09.420Z,1.67
2018-08-04T23:43:38.660Z,1.70
2018-08-04T23:46:07.817Z,1.60
2018-08-04T23:48:37.078Z,1.43
2018-08-04T23:51:06.251Z,1.30
2018-08-04T23:53:35.471Z,1.30
2018-08-04T23:56:04.612Z,1.37
2018-08-04T23:58:33.745Z,1.43
